Time;durP1;ratioP1;P1;durP2;ratioP2;P2;SDS_P1;SDS_P2;PMS_P1;PMS_P2;Temp;Humidity;BMP_temperature;BMP_pressure;BME280_temperature;BME280_humidity;BME280_pressure;Samples;Min_cycle;Max_cycle;Signal;HPM_P1;HPM_P2
2023/08/28 00:00:59;;;;;;;33.08;13.15;;;11.90;99.90;;;;;;5075782;28;20132;-80
2023/08/28 00:03:24;;;;;;;33.75;13.45;;;11.90;99.90;;;;;;5075217;28;20088;-82
2023/08/28 00:05:50;;;;;;;32.92;12.98;;;11.90;99.90;;;;;;5071849;28;20075;-79
2023/08/28 00:08:16;;;;;;;31.70;12.75;;;11.90;99.90;;;;;;5072306;28;20098;-81
2023/08/28 00:10:43;;;;;;;36.33;13.25;;;11.80;99.90;;;;;;5073490;28;20056;-80
2023/08/28 00:13:08;;;;;;;;;;;11.70;99.90;;;;;;5074063;28;20055;-81
2023/08/28 00:15:34;;;;;;;29.00;12.57;;;11.70;99.90;;;;;;5072624;28;19921;-81
2023/08/28 00:18:00;;;;;;;28.98;12.18;;;11.70;99.90;;;;;;5074053;28;20048;-81
2023/08/28 00:20:25;;;;;;;32.13;11.95;;;11.60;99.90;;;;;;5073701;28;20048;-81
2023/08/28 00:22:51;;;;;;;30.80;13.00;;;11.60;99.90;;;;;;5073891;28;20113;-79
2023/08/28 00:25:17;;;;;;;32.55;12.80;;;11.60;99.90;;;;;;5073678;28;20105;-80
2023/08/28 00:27:43;;;;;;;37.83;13.60;;;11.60;99.90;;;;;;5074153;28;20053;-82
2023/08/28 00:30:10;;;;;;;29.88;14.43;;;11.60;99.90;;;;;;5073256;28;20501;-80
2023/08/28 00:32:35;;;;;;;34.67;13.40;;;11.60;99.90;;;;;;5073380;28;20056;-80
2023/08/28 00:35:01;;;;;;;40.85;14.60;;;11.50;99.90;;;;;;5076197;28;20048;-80
2023/08/28 00:37:27;;;;;;;34.28;13.52;;;11.50;99.90;;;;;;5076160;28;20068;-80
2023/08/28 00:39:52;;;;;;;42.45;14.40;;;11.50;99.90;;;;;;5080662;28;20401;-80
2023/08/28 00:42:18;;;;;;;39.03;14.20;;;11.40;99.90;;;;;;5079570;28;20076;-81
2023/08/28 00:44:44;;;;;;;34.13;14.15;;;11.40;99.90;;;;;;5074902;28;20045;-80
2023/08/28 00:47:10;;;;;;;33.05;13.45;;;11.40;99.90;;;;;;5075786;28;20051;-78
2023/08/28 00:49:36;;;;;;;35.80;13.90;;;11.40;99.90;;;;;;5075133;28;20052;-80
2023/08/28 00:52:02;;;;;;;34.63;13.70;;;11.40;99.90;;;;;;5075598;28;20503;-79
2023/08/28 00:54:28;;;;;;;36.70;13.10;;;11.40;99.90;;;;;;5077113;28;20051;-80
2023/08/28 00:56:55;;;;;;;33.33;13.52;;;11.40;99.90;;;;;;5077476;28;20412;-79
2023/08/28 00:59:21;;;;;;;33.72;14.18;;;11.30;99.90;;;;;;5077151;28;20091;-80
2023/08/28 01:01:47;;;;;;;35.78;14.20;;;11.30;99.90;;;;;;5077875;28;20041;-80
2023/08/28 01:04:13;;;;;;;33.55;14.25;;;11.30;99.90;;;;;;5080124;28;20056;-81
2023/08/28 01:06:59;;;;;;;43.55;13.95;;;11.30;99.90;;;;;;5059103;28;20040;-83
2023/08/28 01:09:33;;;;;;;;;;;11.30;99.90;;;;;;5077967;28;20049;-82
2023/08/28 01:12:23;;;;;;;37.35;13.82;;;11.30;99.90;;;;;;5076054;28;20014;-80
2023/08/28 01:15:06;;;;;;;44.88;13.95;;;11.30;99.90;;;;;;5077279;28;20382;-83
2023/08/28 01:17:33;;;;;;;39.70;13.93;;;11.30;99.90;;;;;;5078961;28;20084;-81
2023/08/28 01:20:00;;;;;;;46.83;15.02;;;11.30;99.90;;;;;;5074606;28;20057;-79
2023/08/28 01:22:57;;;;;;;43.43;15.23;;;11.30;99.90;;;;;;5076550;28;20507;-82
2023/08/28 01:25:29;;;;;;;35.95;14.13;;;11.30;99.90;;;;;;5077049;28;20044;-82
2023/08/28 01:27:56;;;;;;;40.17;14.45;;;11.30;99.90;;;;;;5058365;28;20048;-82
2023/08/28 01:30:22;;;;;;;41.60;15.40;;;11.30;99.90;;;;;;5076604;28;20052;-82
2023/08/28 01:32:48;;;;;;;43.00;15.68;;;11.30;99.90;;;;;;5075616;28;20040;-81
2023/08/28 01:35:20;;;;;;;43.00;15.77;;;11.30;99.90;;;;;;5057396;28;20389;-81
2023/08/28 01:38:21;;;;;;;46.70;16.80;;;11.30;99.90;;;;;;5074604;28;20071;-81
2023/08/28 01:40:54;;;;;;;48.40;16.75;;;11.30;99.90;;;;;;5075210;28;20579;-80
2023/08/28 01:43:23;;;;;;;43.75;17.05;;;11.40;99.90;;;;;;5074712;28;20040;-80
2023/08/28 01:45:52;;;;;;;52.22;18.00;;;11.30;99.90;;;;;;5081001;28;20037;-84
2023/08/28 01:48:18;;;;;;;51.92;18.27;;;11.30;99.90;;;;;;5089833;28;20243;-82
2023/08/28 01:50:44;;;;;;;52.15;18.98;;;11.30;99.90;;;;;;5081789;28;20047;-82
2023/08/28 01:53:10;;;;;;;56.10;19.25;;;11.30;99.90;;;;;;5075567;28;20068;-81
2023/08/28 01:55:45;;;;;;;52.55;18.88;;;11.30;99.90;;;;;;5074816;28;20132;-81
2023/08/28 01:58:12;;;;;;;53.30;19.10;;;11.30;99.90;;;;;;5075850;28;20052;-81
2023/08/28 02:00:38;;;;;;;53.75;18.23;;;11.30;99.90;;;;;;5075206;28;20048;-82
2023/08/28 02:03:09;;;;;;;53.75;18.95;;;11.30;99.90;;;;;;5075769;28;20044;-80
2023/08/28 02:05:35;;;;;;;58.55;19.65;;;11.30;99.90;;;;;;5057695;28;20040;-82
2023/08/28 02:08:02;;;;;;;55.10;20.30;;;11.30;99.90;;;;;;5057002;28;20052;-79
2023/08/28 02:10:27;;;;;;;51.80;20.30;;;11.30;99.90;;;;;;5073601;28;20113;-81
2023/08/28 02:12:53;;;;;;;54.22;19.65;;;11.20;99.90;;;;;;5074812;28;20516;-82
2023/08/28 02:15:19;;;;;;;56.67;20.00;;;11.20;99.90;;;;;;5074248;28;20040;-81
2023/08/28 02:17:45;;;;;;;56.45;20.10;;;11.20;99.90;;;;;;5074977;28;20086;-81
2023/08/28 02:20:10;;;;;;;57.47;20.85;;;11.20;99.90;;;;;;5074036;28;20044;-83
2023/08/28 02:22:36;;;;;;;53.47;19.80;;;11.10;99.90;;;;;;5074553;28;20079;-81
2023/08/28 02:25:05;;;;;;;59.85;19.90;;;11.10;99.90;;;;;;5076532;28;20118;-80
2023/08/28 02:27:31;;;;;;;57.95;21.73;;;11.10;99.90;;;;;;5073204;28;20055;-82
2023/08/28 02:29:57;;;;;;;58.30;20.08;;;11.10;99.90;;;;;;5074163;28;20048;-81
2023/08/28 02:32:23;;;;;;;58.22;21.52;;;11.00;99.90;;;;;;5073338;28;20043;-81
2023/08/28 02:34:49;;;;;;;57.42;21.15;;;11.10;99.90;;;;;;5074053;28;20048;-81
2023/08/28 02:37:15;;;;;;;59.15;20.65;;;11.10;99.90;;;;;;5072404;28;20045;-81
2023/08/28 02:39:41;;;;;;;60.85;20.55;;;11.10;99.90;;;;;;5073900;28;20044;-79
2023/08/28 02:42:06;;;;;;;54.45;20.52;;;11.00;99.90;;;;;;5074092;28;20049;-81
2023/08/28 02:44:32;;;;;;;60.72;20.48;;;11.00;99.90;;;;;;5076619;28;20052;-80
2023/08/28 02:46:58;;;;;;;57.33;20.92;;;11.00;99.90;;;;;;5075741;28;20044;-80
2023/08/28 02:49:24;;;;;;;64.80;21.50;;;11.10;99.90;;;;;;5076336;28;20044;-81
2023/08/28 02:51:49;;;;;;;62.53;21.42;;;11.10;99.90;;;;;;5082712;28;20041;-81
2023/08/28 02:54:15;;;;;;;65.68;21.38;;;11.20;99.90;;;;;;5082503;28;20127;-80
2023/08/28 02:56:41;;;;;;;70.10;20.58;;;11.20;99.90;;;;;;5082326;28;20048;-80
2023/08/28 02:59:07;;;;;;;62.17;21.63;;;11.30;99.90;;;;;;5080315;28;20516;-79
2023/08/28 03:01:35;;;;;;;60.28;21.40;;;11.30;99.90;;;;;;5076883;28;20127;-79
2023/08/28 03:04:04;;;;;;;57.65;19.80;;;11.20;99.90;;;;;;5075816;28;20075;-80
2023/08/28 03:06:33;;;;;;;66.32;20.58;;;11.20;99.90;;;;;;5076017;28;20048;-81
2023/08/28 03:08:59;;;;;;;63.05;20.92;;;11.10;99.90;;;;;;5074012;28;20101;-80
2023/08/28 03:11:24;;;;;;;62.88;20.85;;;11.00;99.90;;;;;;5072721;28;20049;-81
2023/08/28 03:13:50;;;;;;;57.10;19.60;;;11.00;99.90;;;;;;5072931;28;20052;-82
2023/08/28 03:16:16;;;;;;;58.38;19.38;;;11.00;99.90;;;;;;5072737;28;20044;-81
2023/08/28 03:18:41;;;;;;;59.88;20.52;;;11.00;99.90;;;;;;5073687;28;20044;-81
2023/08/28 03:21:07;;;;;;;62.05;21.45;;;11.00;99.90;;;;;;5073745;28;20057;-82
2023/08/28 03:23:33;;;;;;;70.30;21.52;;;11.00;99.90;;;;;;5072065;28;20379;-81
2023/08/28 03:25:59;;;;;;;62.58;20.15;;;10.90;99.90;;;;;;5072122;28;20439;-80
2023/08/28 03:28:25;;;;;;;61.08;20.33;;;10.90;99.90;;;;;;5072884;28;20408;-80
2023/08/28 03:30:50;;;;;;;58.55;19.45;;;11.00;99.90;;;;;;5072385;28;20114;-80
2023/08/28 03:33:16;;;;;;;50.75;18.90;;;10.90;99.90;;;;;;5071700;28;20066;-80
2023/08/28 03:35:42;;;;;;;62.33;20.83;;;10.90;99.90;;;;;;5071997;28;20055;-81
2023/08/28 03:38:08;;;;;;;58.80;20.20;;;10.90;99.90;;;;;;5038800;28;20049;-79
2023/08/28 03:40:35;;;;;;;67.80;20.30;;;10.90;99.90;;;;;;5073346;28;20052;-81
2023/08/28 03:43:00;;;;;;;57.80;19.27;;;10.90;99.90;;;;;;5073293;28;20231;-83
2023/08/28 03:45:27;;;;;;;57.72;18.85;;;10.80;99.90;;;;;;5073507;28;20145;-81
2023/08/28 03:47:52;;;;;;;54.03;18.23;;;10.90;99.90;;;;;;5073282;28;20056;-82
2023/08/28 03:50:18;;;;;;;51.28;18.70;;;10.90;99.90;;;;;;5080360;28;20466;-79
2023/08/28 03:52:44;;;;;;;54.85;18.55;;;10.80;99.90;;;;;;5078138;28;20118;-80
2023/08/28 03:55:10;;;;;;;54.55;17.67;;;10.80;99.90;;;;;;5083915;28;20063;-81
2023/08/28 03:57:36;;;;;;;50.63;18.77;;;10.80;99.90;;;;;;5083655;28;20056;-81
2023/08/28 04:00:12;;;;;;;53.30;17.30;;;10.80;99.90;;;;;;5077783;28;20045;-82
2023/08/28 04:02:39;;;;;;;58.75;19.70;;;10.80;99.90;;;;;;5078095;28;20040;-80
2023/08/28 04:05:06;;;;;;;51.60;17.83;;;10.80;99.90;;;;;;5077183;28;20408;-81
2023/08/28 04:07:32;;;;;;;;;;;10.70;99.90;;;;;;5074433;28;20048;-80
2023/08/28 04:09:58;;;;;;;58.33;17.27;;;10.80;99.90;;;;;;5079113;28;19946;-79
2023/08/28 04:12:24;;;;;;;50.10;18.33;;;10.70;99.90;;;;;;5077065;28;20044;-81
2023/08/28 04:14:49;;;;;;;54.25;18.27;;;10.80;99.90;;;;;;5075647;28;20278;-81
2023/08/28 04:17:16;;;;;;;50.90;19.15;;;10.70;99.90;;;;;;5076363;28;20036;-80
2023/08/28 04:19:42;;;;;;;58.33;19.23;;;10.70;99.90;;;;;;5076289;28;20052;-81
2023/08/28 04:22:08;;;;;;;56.05;18.65;;;10.70;99.90;;;;;;5075183;28;20135;-80
2023/08/28 04:24:34;;;;;;;64.28;19.55;;;10.70;99.90;;;;;;5075386;28;20128;-80
2023/08/28 04:27:00;;;;;;;56.83;19.05;;;10.70;99.90;;;;;;5076941;28;20060;-81
2023/08/28 04:29:25;;;;;;;51.78;17.65;;;10.60;99.90;;;;;;5076308;28;20040;-81
2023/08/28 04:31:52;;;;;;;57.17;19.23;;;10.70;99.90;;;;;;5075033;28;20048;-81
2023/08/28 04:34:18;;;;;;;53.03;18.33;;;10.60;99.90;;;;;;5074936;28;20113;-80
2023/08/28 04:36:44;;;;;;;54.05;16.92;;;10.60;99.90;;;;;;5075691;28;20053;-79
2023/08/28 04:39:10;;;;;;;54.00;17.08;;;10.60;99.90;;;;;;5058566;28;20072;-80
2023/08/28 04:41:35;;;;;;;56.15;18.30;;;10.60;99.90;;;;;;5075944;28;20048;-80
2023/08/28 04:44:01;;;;;;;47.53;17.45;;;10.60;99.90;;;;;;5075664;28;20048;-79
2023/08/28 04:46:28;;;;;;;52.17;18.88;;;10.60;99.90;;;;;;5075286;28;20280;-80
2023/08/28 04:48:54;;;;;;;55.92;19.02;;;10.60;99.90;;;;;;5076667;28;20045;-79
2023/08/28 04:51:20;;;;;;;51.47;18.42;;;10.60;99.90;;;;;;5074634;28;20052;-80
2023/08/28 04:53:45;;;;;;;50.30;17.50;;;10.70;99.90;;;;;;5075464;28;20041;-80
2023/08/28 04:56:11;;;;;;;49.05;18.33;;;10.60;99.90;;;;;;5075838;28;20463;-80
2023/08/28 04:58:37;;;;;;;58.83;18.73;;;10.60;99.90;;;;;;5075420;28;20048;-82
2023/08/28 05:01:03;;;;;;;56.08;18.58;;;10.70;99.90;;;;;;5074790;28;20048;-81
2023/08/28 05:03:29;;;;;;;58.83;19.52;;;10.70;99.90;;;;;;5075692;28;20174;-77
2023/08/28 05:05:55;;;;;;;55.50;20.63;;;10.80;99.90;;;;;;5075654;28;20495;-80
2023/08/28 05:08:21;;;;;;;60.45;21.20;;;10.80;99.90;;;;;;5075600;28;20045;-83
2023/08/28 05:10:46;;;;;;;54.25;19.65;;;10.80;99.90;;;;;;5075403;28;20473;-80
2023/08/28 05:13:13;;;;;;;59.17;21.42;;;10.80;99.90;;;;;;5057545;28;20036;-80
2023/08/28 05:15:38;;;;;;;52.60;19.50;;;10.80;99.90;;;;;;5075163;28;20123;-81
2023/08/28 05:18:04;;;;;;;57.20;20.77;;;10.90;99.90;;;;;;5074681;28;20087;-81
2023/08/28 05:20:30;;;;;;;58.60;20.60;;;10.90;99.90;;;;;;5074211;28;20499;-80
2023/08/28 05:22:55;;;;;;;54.80;20.33;;;10.90;99.90;;;;;;5074317;28;20045;-78
2023/08/28 05:25:21;;;;;;;58.42;20.45;;;11.00;99.90;;;;;;5075410;28;20044;-79
2023/08/28 05:27:47;;;;;;;60.78;20.73;;;11.00;99.90;;;;;;5073389;28;20522;-79
2023/08/28 05:30:13;;;;;;;63.78;20.90;;;11.00;99.90;;;;;;5074054;28;20055;-79
2023/08/28 05:32:38;;;;;;;59.95;21.10;;;11.10;99.90;;;;;;5056965;28;20404;-80
2023/08/28 05:35:06;;;;;;;56.90;20.55;;;11.10;99.90;;;;;;5074197;28;20377;-80
2023/08/28 05:37:31;;;;;;;;;;;11.10;99.90;;;;;;5075854;28;20052;-78
2023/08/28 05:39:57;;;;;;;46.13;17.57;;;11.20;99.90;;;;;;5074256;28;20022;-80
2023/08/28 05:42:23;;;;;;;49.33;19.02;;;11.20;99.90;;;;;;5057158;28;20045;-78
2023/08/28 05:44:48;;;;;;;60.42;21.23;;;11.30;99.90;;;;;;5056342;28;20404;-78
2023/08/28 05:47:14;;;;;;;61.50;21.30;;;11.30;99.90;;;;;;5074558;28;20043;-78
2023/08/28 05:49:40;;;;;;;57.05;21.25;;;11.30;99.90;;;;;;5074112;28;20131;-78
2023/08/28 05:52:06;;;;;;;57.60;20.75;;;11.40;99.90;;;;;;5073677;28;20106;-79
2023/08/28 05:54:32;;;;;;;59.92;21.77;;;11.40;99.90;;;;;;5073176;28;20433;-79
2023/08/28 05:56:57;;;;;;;58.92;20.88;;;11.40;99.90;;;;;;5074440;28;20045;-81
2023/08/28 05:59:23;;;;;;;56.83;20.60;;;11.50;99.90;;;;;;5057121;28;20370;-81
2023/08/28 06:01:49;;;;;;;54.58;20.73;;;11.50;99.90;;;;;;5074047;28;20040;-80
2023/08/28 06:04:14;;;;;;;54.08;19.67;;;11.60;99.90;;;;;;5073961;28;20048;-81
2023/08/28 06:06:40;;;;;;;61.53;20.58;;;11.60;99.90;;;;;;5074095;28;20037;-80
2023/08/28 06:09:07;;;;;;;51.08;19.95;;;11.70;99.90;;;;;;5075259;28;20127;-79
2023/08/28 06:11:33;;;;;;;53.10;19.52;;;11.70;99.90;;;;;;5076460;28;20075;-81
2023/08/28 06:13:59;;;;;;;56.50;21.63;;;11.80;99.90;;;;;;5077373;28;20390;-81
2023/08/28 06:16:26;;;;;;;55.77;20.73;;;11.80;99.90;;;;;;5076235;28;20532;-81
2023/08/28 06:18:52;;;;;;;59.50;22.48;;;11.90;99.90;;;;;;5074881;28;20054;-81
2023/08/28 06:21:17;;;;;;;58.70;23.23;;;11.90;99.90;;;;;;5075252;28;20127;-82
2023/08/28 06:23:43;;;;;;;63.35;24.75;;;12.00;99.90;;;;;;5073148;28;20131;-81
2023/08/28 06:26:09;;;;;;;59.38;23.52;;;12.10;99.90;;;;;;5074282;28;20404;-79
2023/08/28 06:28:34;;;;;;;57.17;22.92;;;12.10;99.90;;;;;;5074083;28;20443;-80
2023/08/28 06:31:02;;;;;;;60.70;23.25;;;12.10;99.90;;;;;;5071913;28;20055;-80
2023/08/28 06:33:28;;;;;;;50.35;19.88;;;12.30;99.90;;;;;;5074066;28;20051;-81
2023/08/28 06:35:54;;;;;;;59.17;21.02;;;12.30;99.90;;;;;;5073823;28;20432;-82
2023/08/28 06:38:20;;;;;;;50.55;20.08;;;12.40;99.90;;;;;;5072894;28;20123;-82
2023/08/28 06:40:50;;;;;;;49.85;19.30;;;12.50;99.90;;;;;;5073192;28;20044;-81
2023/08/28 06:43:17;;;;;;;53.20;19.30;;;12.60;99.90;;;;;;5073771;28;20070;-81
2023/08/28 06:45:43;;;;;;;51.70;19.93;;;12.60;99.90;;;;;;5073952;28;20045;-80
2023/08/28 06:48:09;;;;;;;41.60;17.45;;;12.70;99.90;;;;;;5073049;28;20173;-83
2023/08/28 06:50:35;;;;;;;46.05;18.33;;;12.80;99.90;;;;;;5074506;28;20452;-81
2023/08/28 06:53:01;;;;;;;45.95;17.38;;;12.90;99.90;;;;;;5074078;28;20428;-79
2023/08/28 06:55:27;;;;;;;44.72;16.15;;;13.00;99.90;;;;;;5074770;28;20064;-82
2023/08/28 06:57:54;;;;;;;46.03;16.92;;;13.10;99.90;;;;;;5073539;28;20044;-81
2023/08/28 07:00:19;;;;;;;38.93;15.17;;;13.30;99.90;;;;;;5074969;28;20048;-80
2023/08/28 07:02:45;;;;;;;43.40;16.88;;;13.30;99.90;;;;;;5072338;28;20287;-81
2023/08/28 07:05:11;;;;;;;45.05;16.80;;;13.50;99.90;;;;;;5072435;28;20044;-81
2023/08/28 07:07:37;;;;;;;43.63;16.65;;;13.60;99.90;;;;;;5056675;28;20041;-81
2023/08/28 07:10:04;;;;;;;40.65;16.33;;;13.70;99.90;;;;;;5072868;28;20048;-80
2023/08/28 07:12:30;;;;;;;37.78;16.20;;;13.80;99.90;;;;;;5074407;28;20048;-81
2023/08/28 07:15:11;;;;;;;44.53;16.42;;;13.90;99.90;;;;;;5073922;28;20055;-81
2023/08/28 07:17:37;;;;;;;41.00;15.68;;;14.00;99.90;;;;;;5072585;28;20131;-80
2023/08/28 07:20:04;;;;;;;41.55;16.48;;;14.10;99.90;;;;;;5073675;28;20052;-81
2023/08/28 07:22:30;;;;;;;;;;;14.20;99.90;;;;;;5057059;28;20048;-81
2023/08/28 07:24:56;;;;;;;45.28;17.50;;;14.30;99.90;;;;;;5073828;28;20368;-79
2023/08/28 07:27:22;;;;;;;47.42;18.90;;;14.40;99.90;;;;;;5055856;28;20057;-81
2023/08/28 07:29:48;;;;;;;51.88;19.20;;;14.50;99.90;;;;;;5072084;28;20059;-81
2023/08/28 07:32:13;;;;;;;43.97;17.85;;;14.60;99.90;;;;;;5072775;28;20048;-80
2023/08/28 07:34:39;;;;;;;37.75;15.30;;;14.70;99.90;;;;;;5074414;28;20041;-80
2023/08/28 07:37:05;;;;;;;41.67;16.15;;;14.80;99.90;;;;;;5073318;28;20045;-81
2023/08/28 07:39:31;;;;;;;38.85;16.63;;;14.90;99.90;;;;;;5074465;28;20051;-81
2023/08/28 07:41:57;;;;;;;38.30;16.38;;;15.00;99.90;;;;;;5076100;28;20045;-81
2023/08/28 07:44:23;;;;;;;40.47;16.35;;;15.00;99.90;;;;;;5076563;28;20119;-79
2023/08/28 07:46:49;;;;;;;42.30;15.82;;;15.20;99.90;;;;;;5076631;28;20091;-81
2023/08/28 07:49:15;;;;;;;39.28;11.93;;;15.30;99.90;;;;;;5061671;28;20048;-79
2023/08/28 07:51:41;;;;;;;30.17;12.15;;;15.30;99.90;;;;;;5077013;28;20044;-79
2023/08/28 07:54:06;;;;;;;28.60;11.00;;;15.40;99.90;;;;;;5078446;28;20131;-80
2023/08/28 07:56:32;;;;;;;30.95;11.38;;;15.50;99.90;;;;;;5079178;28;20048;-78
2023/08/28 07:58:58;;;;;;;30.23;12.60;;;15.50;99.90;;;;;;5076324;28;20051;-80
2023/08/28 08:01:24;;;;;;;25.42;8.90;;;15.60;99.90;;;;;;5078150;28;20481;-79
2023/08/28 08:03:49;;;;;;;23.73;9.05;;;15.60;99.90;;;;;;5076265;28;20090;-81
2023/08/28 08:06:16;;;;;;;24.80;9.50;;;15.70;99.90;;;;;;5076386;28;20504;-82
2023/08/28 08:08:44;;;;;;;;;;;15.80;99.90;;;;;;5079118;28;20048;-81
2023/08/28 08:11:10;;;;;;;20.75;7.03;;;15.90;99.90;;;;;;5076064;28;19920;-78
2023/08/28 08:13:36;;;;;;;21.43;8.03;;;15.90;99.90;;;;;;5076631;28;20397;-82
2023/08/28 08:16:01;;;;;;;22.17;7.82;;;16.00;99.90;;;;;;5076918;28;20044;-78
2023/08/28 08:18:27;;;;;;;22.08;8.02;;;16.10;99.90;;;;;;5076101;28;20053;-79
2023/08/28 08:20:53;;;;;;;18.10;7.65;;;16.10;99.90;;;;;;5077461;28;20044;-76
2023/08/28 08:23:19;;;;;;;19.17;9.43;;;16.10;99.90;;;;;;5077600;28;20563;-78
2023/08/28 08:25:44;;;;;;;23.73;9.97;;;16.10;99.90;;;;;;5076957;28;20097;-78
2023/08/28 08:28:12;;;;;;;23.02;8.65;;;16.10;99.90;;;;;;5081774;28;20139;-78
2023/08/28 08:30:38;;;;;;;22.60;9.27;;;16.10;99.90;;;;;;5076650;28;20056;-78
2023/08/28 08:33:04;;;;;;;22.60;8.90;;;16.20;99.90;;;;;;5059793;28;20123;-79
2023/08/28 08:35:30;;;;;;;19.00;7.65;;;16.30;99.90;;;;;;5081600;28;20048;-77
2023/08/28 08:37:55;;;;;;;17.27;6.05;;;16.50;99.90;;;;;;5079981;28;20046;-77
2023/08/28 08:40:25;;;;;;;13.43;5.43;;;16.80;99.90;;;;;;5077937;28;20106;-78
2023/08/28 08:42:55;;;;;;;17.50;6.15;;;17.10;99.90;;;;;;5078058;28;20041;-80
2023/08/28 08:45:28;;;;;;;15.50;5.72;;;17.40;99.90;;;;;;5076446;28;20044;-76
2023/08/28 08:47:57;;;;;;;14.85;5.50;;;17.60;99.90;;;;;;5075108;28;20493;-77
2023/08/28 08:50:24;;;;;;;15.93;5.47;;;17.60;99.90;;;;;;5076667;28;20048;-77
2023/08/28 08:52:51;;;;;;;16.13;4.72;;;17.90;99.90;;;;;;5084080;28;20465;-78
2023/08/28 08:55:41;;;;;;;15.45;5.18;;;18.10;99.90;;;;;;5087296;28;20131;-75
2023/08/28 08:58:11;;;;;;;13.95;4.22;;;18.40;99.90;;;;;;5086988;28;20067;-77
2023/08/28 09:00:39;;;;;;;15.85;3.97;;;18.40;99.90;;;;;;5079201;28;20516;-75
2023/08/28 09:03:08;;;;;;;15.30;4.18;;;18.50;99.90;;;;;;5080191;28;20044;-76
2023/08/28 09:05:35;;;;;;;11.15;3.45;;;18.60;99.90;;;;;;5083240;28;20404;-76
2023/08/28 09:08:03;;;;;;;15.20;3.85;;;18.60;99.90;;;;;;5081542;28;20500;-77
2023/08/28 09:10:30;;;;;;;13.27;3.50;;;18.50;99.90;;;;;;5080851;28;20054;-76
2023/08/28 09:12:55;;;;;;;9.65;3.35;;;18.50;99.90;;;;;;5078616;28;20048;-75
2023/08/28 09:15:21;;;;;;;11.70;2.80;;;18.10;99.90;;;;;;5076262;28;20055;-77
2023/08/28 09:17:47;;;;;;;11.80;3.30;;;18.10;99.90;;;;;;5075636;28;20086;-77
2023/08/28 09:20:14;;;;;;;10.13;2.27;;;18.20;99.90;;;;;;5074559;28;20056;-75
2023/08/28 09:22:51;;;;;;;8.80;2.38;;;18.30;99.90;;;;;;5057975;28;20052;-78
2023/08/28 09:25:18;;;;;;;11.82;3.05;;;18.50;99.90;;;;;;5057322;28;20271;-76
2023/08/28 09:27:47;;;;;;;10.90;2.30;;;18.80;99.90;;;;;;5075595;28;20057;-78
2023/08/28 09:30:38;;;;;;;9.43;2.10;;;19.00;99.90;;;;;;5074566;28;20043;-75
2023/08/28 09:33:06;;;;;;;6.93;1.95;;;19.20;99.90;;;;;;5075044;28;20098;-79
2023/08/28 09:35:40;;;;;;;6.22;2.03;;;19.50;99.90;;;;;;5075966;28;20084;-77
2023/08/28 09:38:07;;;;;;;8.55;1.85;;;19.80;99.90;;;;;;5077146;28;20056;-77
2023/08/28 09:40:35;;;;;;;8.05;2.42;;;19.80;99.90;;;;;;5079315;28;20055;-80
2023/08/28 09:43:17;;;;;;;10.45;2.30;;;19.80;99.90;;;;;;5060892;28;20049;-78
2023/08/28 09:45:44;;;;;;;9.05;2.28;;;20.00;99.90;;;;;;5062349;28;20502;-81
2023/08/28 09:48:11;;;;;;;14.80;2.35;;;19.80;99.90;;;;;;5080260;28;20047;-81
2023/08/28 09:50:41;;;;;;;9.15;2.67;;;19.70;99.90;;;;;;5062435;28;20056;-81
2023/08/28 09:53:12;;;;;;;10.73;3.25;;;19.50;99.90;;;;;;5078822;28;20578;-82
2023/08/28 09:55:40;;;;;;;14.88;3.70;;;19.30;99.90;;;;;;5075966;28;20049;-81
2023/08/28 09:58:10;;;;;;;13.30;3.50;;;18.90;99.90;;;;;;5077698;28;20053;-80
2023/08/28 10:00:38;;;;;;;10.95;3.80;;;18.50;99.90;;;;;;5077756;28;20047;-81
2023/08/28 10:03:05;;;;;;;11.98;3.22;;;18.20;99.90;;;;;;5077905;28;20052;-81
2023/08/28 10:05:33;;;;;;;12.13;2.92;;;17.80;99.90;;;;;;5082085;28;20041;-81
2023/08/28 10:08:02;;;;;;;10.38;2.80;;;17.70;99.90;;;;;;5084487;28;20047;-81
2023/08/28 10:10:30;;;;;;;12.35;2.30;;;17.50;99.90;;;;;;5085874;28;20131;-82
2023/08/28 10:12:56;;;;;;;6.97;2.17;;;17.50;99.90;;;;;;5084919;28;20041;-83
2023/08/28 10:15:22;;;;;;;5.97;1.98;;;17.60;99.90;;;;;;5082430;28;20056;-81
2023/08/28 10:17:50;;;;;;;11.33;2.13;;;17.70;99.90;;;;;;5082564;28;20079;-82
2023/08/28 10:20:18;;;;;;;6.88;1.10;;;17.80;99.90;;;;;;5079023;28;20049;-82
2023/08/28 10:22:46;;;;;;;5.25;1.02;;;18.00;99.90;;;;;;5088274;28;20086;-82
2023/08/28 10:25:13;;;;;;;9.95;1.50;;;18.10;99.90;;;;;;5079004;28;20048;-79
2023/08/28 10:27:41;;;;;;;5.75;1.20;;;18.20;99.90;;;;;;5064216;28;20052;-81
2023/08/28 10:30:08;;;;;;;6.82;1.13;;;18.30;99.90;;;;;;5080535;28;20056;-82
2023/08/28 10:32:35;;;;;;;6.15;1.23;;;18.40;99.90;;;;;;5081060;28;20044;-81
2023/08/28 10:35:02;;;;;;;9.05;1.30;;;18.60;99.90;;;;;;5081163;28;20049;-78
2023/08/28 10:37:31;;;;;;;6.32;1.38;;;18.70;99.90;;;;;;5084524;28;20044;-79
2023/08/28 10:39:57;;;;;;;5.90;1.27;;;18.90;99.90;;;;;;5083573;28;20131;-80
2023/08/28 10:42:23;;;;;;;8.48;1.45;;;19.20;99.90;;;;;;5084534;28;20044;-81
2023/08/28 10:44:49;;;;;;;3.65;1.00;;;19.50;99.90;;;;;;5084118;28;20109;-82
2023/08/28 10:47:17;;;;;;;7.68;1.13;;;19.60;99.90;;;;;;5077285;28;20036;-81
2023/08/28 10:49:43;;;;;;;9.48;1.40;;;19.60;99.90;;;;;;5077332;28;20074;-80
2023/08/28 10:52:10;;;;;;;5.23;1.00;;;19.70;99.90;;;;;;5072279;28;20131;-80
2023/08/28 10:54:43;;;;;;;7.47;1.38;;;20.00;99.90;;;;;;5073079;28;20079;-82
2023/08/28 10:57:27;;;;;;;8.65;1.08;;;20.00;99.90;;;;;;5073917;28;20075;-81
2023/08/28 10:59:53;;;;;;;5.05;1.08;;;20.30;99.90;;;;;;5056269;28;20048;-83
2023/08/28 11:02:20;;;;;;;4.72;1.02;;;20.20;99.90;;;;;;5072908;28;20404;-80
2023/08/28 11:04:46;;;;;;;8.48;1.40;;;20.50;99.90;;;;;;5073351;28;20051;-83
2023/08/28 11:07:21;;;;;;;10.40;1.20;;;20.70;99.90;;;;;;5073431;28;20049;-84
2023/08/28 11:09:47;;;;;;;9.13;1.33;;;20.90;99.90;;;;;;5073320;28;20045;-80
2023/08/28 11:12:15;;;;;;;6.32;1.20;;;21.00;99.90;;;;;;5056453;28;20102;-84
2023/08/28 11:15:03;;;;;;;7.90;1.58;;;20.80;99.90;;;;;;5073040;28;20045;-85
2023/08/28 11:17:30;;;;;;;10.07;1.60;;;20.80;99.90;;;;;;5074504;28;20487;-80
2023/08/28 11:19:56;;;;;;;7.38;1.15;;;20.70;99.90;;;;;;5077684;28;20041;-84
2023/08/28 11:22:30;;;;;;;7.27;1.40;;;20.70;99.90;;;;;;5075252;28;20051;-85
2023/08/28 11:24:57;;;;;;;5.28;1.20;;;20.70;99.90;;;;;;5079330;28;20044;-82
2023/08/28 11:27:49;;;;;;;8.50;1.23;;;20.90;99.90;;;;;;5072922;28;20459;-83
2023/08/28 11:30:19;;;;;;;5.63;1.00;;;20.80;99.90;;;;;;5055574;28;20048;-84
2023/08/28 11:32:47;;;;;;;10.95;1.38;;;20.80;99.90;;;;;;5073803;28;20040;-82
2023/08/28 11:35:14;;;;;;;3.55;1.00;;;20.80;99.90;;;;;;5073758;28;20048;-82
2023/08/28 11:37:42;;;;;;;9.93;1.63;;;20.90;99.90;;;;;;5074889;28;20469;-81
2023/08/28 11:40:09;;;;;;;4.00;1.10;;;21.00;99.90;;;;;;5072341;28;20068;-88
2023/08/28 11:42:36;;;;;;;4.88;0.90;;;21.20;99.90;;;;;;5072153;28;20330;-82
2023/08/28 11:45:06;;;;;;;;;;;21.30;99.90;;;;;;5072570;28;20492;-83
2023/08/28 11:47:33;;;;;;;4.97;0.80;;;21.20;99.90;;;;;;5071665;28;20384;-78
2023/08/28 11:50:00;;;;;;;3.53;1.52;;;21.20;99.90;;;;;;5076147;28;20489;-82
2023/08/28 11:52:26;;;;;;;5.13;1.13;;;21.10;99.90;;;;;;5072526;28;20045;-80
2023/08/28 11:54:58;;;;;;;7.40;1.10;;;21.20;99.90;;;;;;5055371;28;20109;-79
2023/08/28 11:57:25;;;;;;;4.43;1.13;;;21.30;99.90;;;;;;5071190;28;20048;-82
2023/08/28 11:59:52;;;;;;;6.38;1.38;;;21.30;99.90;;;;;;5071631;28;20048;-82
2023/08/28 12:02:19;;;;;;;3.92;0.85;;;21.10;99.90;;;;;;5072748;28;20048;-80
2023/08/28 12:04:50;;;;;;;3.60;0.90;;;21.30;99.90;;;;;;5038574;28;20458;-85
2023/08/28 12:07:24;;;;;;;5.43;0.90;;;21.40;99.90;;;;;;5072574;28;20051;-82
2023/08/28 12:09:52;;;;;;;6.57;1.45;;;21.40;99.90;;;;;;5073067;28;20053;-82
2023/08/28 12:12:19;;;;;;;3.35;0.90;;;21.60;99.90;;;;;;5072870;28;20092;-85
2023/08/28 12:14:46;;;;;;;5.60;1.15;;;21.60;99.90;;;;;;5072923;28;20114;-84
2023/08/28 12:17:20;;;;;;;3.97;1.20;;;21.40;99.90;;;;;;5072512;28;20041;-82
2023/08/28 12:19:48;;;;;;;7.53;1.10;;;21.10;99.90;;;;;;5071609;28;20044;-82
2023/08/28 12:22:14;;;;;;;6.95;0.90;;;20.70;99.90;;;;;;5072635;28;20045;-80
2023/08/28 12:24:45;;;;;;;5.10;0.85;;;20.30;99.90;;;;;;5072781;28;20084;-80
2023/08/28 12:27:12;;;;;;;5.68;0.90;;;20.30;99.90;;;;;;5074316;28;20067;-80
2023/08/28 12:29:38;;;;;;;4.57;0.80;;;20.50;99.90;;;;;;5077151;28;20060;-78
2023/08/28 12:32:06;;;;;;;;;;;20.60;99.90;;;;;;5078730;28;20040;-79
2023/08/28 12:34:37;;;;;;;4.40;1.00;;;20.70;99.90;;;;;;5076326;28;19921;-82
2023/08/28 12:37:11;;;;;;;5.80;0.80;;;20.90;99.90;;;;;;5074933;28;20044;-78